Terminal Aerodrome Forecast
Issued by NWS

Home | Current Version | Previous Version | Text Only | Print | Product List | Glossary On
Versions: 1 2 3 4 5 6 7 8 9 10 11 12 13 14 15 16 17 18 19 20 21 22 23 24 25 26 27
000
FTUS45 KGJT 020526
TAFDRO
TAF
KDRO 020526Z 0206/0306 08004KT P6SM FEW120 SCT200
     FM021200 09003KT P6SM SCT120
     FM022000 34007KT P6SM VCTS SCT080CB BKN110
      TEMPO 0221/0301 VRB15G25KT -TSRA BKN080CB
     FM030200 02005KT P6SM VCSH SCT070 BKN100=

USA.gov is the U.S. government's official web portal to all federal, state and local government web resources and services.